createdAt,value
2018-08-28T00:00:00.292Z,100490.81
2018-08-28T00:02:32.077Z,100499.67
2018-08-28T00:05:03.600Z,100500.70
2018-08-28T00:07:34.967Z,100494.28
2018-08-28T00:10:06.585Z,100503.88
2018-08-28T00:12:38.218Z,100498.61
2018-08-28T00:15:09.757Z,100494.70
2018-08-28T00:17:40.898Z,100493.67
2018-08-28T00:20:12.514Z,100496.48
2018-08-28T00:22:44.185Z,100501.89
2018-08-28T00:25:15.678Z,100498.28
2018-08-28T00:27:47.188Z,100506.00
2018-08-28T00:30:18.641Z,100506.61
2018-08-28T00:32:49.868Z,100513.16
2018-08-28T00:35:21.350Z,100517.91
2018-08-28T00:37:52.742Z,100521.69
2018-08-28T00:40:23.768Z,100521.91
2018-08-28T00:42:54.792Z,100521.38
2018-08-28T00:45:26.292Z,100527.16
2018-08-28T00:47:57.772Z,100530.44
2018-08-28T00:50:29.192Z,100528.62
2018-08-28T00:53:00.712Z,100545.81
2018-08-28T00:55:32.187Z,100550.77
2018-08-28T00:58:03.685Z,100550.34
2018-08-28T01:00:35.295Z,100556.97
2018-08-28T01:03:07.337Z,100556.25
2018-08-28T01:05:38.776Z,100560.97
2018-08-28T01:08:10.631Z,100558.56
2018-08-28T01:10:41.971Z,100560.58
2018-08-28T01:13:13.512Z,100563.52
2018-08-28T01:15:44.848Z,100564.89
2018-08-28T01:18:16.294Z,100571.43
2018-08-28T01:20:47.684Z,100571.73
2018-08-28T01:23:19.004Z,100572.58
2018-08-28T01:25:50.528Z,100570.56
2018-08-28T01:28:21.848Z,100573.41
2018-08-28T01:30:53.311Z,100572.98
2018-08-28T01:33:24.724Z,100573.95
2018-08-28T01:35:56.203Z,100563.89
2018-08-28T01:38:27.689Z,100571.81
2018-08-28T01:40:59.209Z,100574.36
2018-08-28T01:43:32.300Z,100578.17
2018-08-28T01:46:03.817Z,100577.41
2018-08-28T01:48:35.283Z,100572.87
2018-08-28T01:51:06.800Z,100576.15
2018-08-28T01:53:38.323Z,100586.05
2018-08-28T01:56:09.719Z,100578.28
2018-08-28T01:58:41.200Z,100580.56
2018-08-28T02:01:12.660Z,100587.76
2018-08-28T02:03:43.963Z,100593.23
2018-08-28T02:06:15.540Z,100593.12
2018-08-28T02:08:46.842Z,100591.41
2018-08-28T02:11:18.339Z,100598.59
2018-08-28T02:13:49.711Z,100595.74
2018-08-28T02:16:21.279Z,100592.25
2018-08-28T02:18:52.714Z,100593.73
2018-08-28T02:21:24.396Z,100602.83
2018-08-28T02:23:55.786Z,100601.45
2018-08-28T02:26:27.198Z,100606.29
2018-08-28T02:28:58.688Z,100613.14
2018-08-28T02:31:29.971Z,100610.93
2018-08-28T02:34:01.476Z,100615.77
2018-08-28T02:36:32.812Z,100614.92
2018-08-28T02:39:05.275Z,100619.15
2018-08-28T02:41:36.740Z,100623.64
2018-08-28T02:44:08.196Z,100621.02
2018-08-28T02:46:40.192Z,100627.98
2018-08-28T02:49:11.681Z,100632.63
2018-08-28T02:51:43.187Z,100631.26
2018-08-28T02:54:14.832Z,100631.67
2018-08-28T02:56:46.364Z,100633.98
2018-08-28T02:59:17.767Z,100630.19
2018-08-28T03:01:49.305Z,100637.03
2018-08-28T03:04:20.753Z,100631.55
2018-08-28T03:06:52.402Z,100637.88
2018-08-28T03:09:23.748Z,100641.45
2018-08-28T03:11:55.286Z,100640.20
2018-08-28T03:14:26.783Z,100647.46
2018-08-28T03:16:58.272Z,100643.35
2018-08-28T03:19:29.674Z,100646.33
2018-08-28T03:22:01.189Z,100658.01
2018-08-28T03:24:32.684Z,100654.00
2018-08-28T03:27:03.975Z,100649.67
2018-08-28T03:29:34.515Z,100659.14
2018-08-28T03:32:06.154Z,100654.19
2018-08-28T03:34:37.708Z,100657.39
2018-08-28T03:37:09.472Z,100664.13
2018-08-28T03:39:40.573Z,100667.70
2018-08-28T03:42:12.207Z,100672.00
2018-08-28T03:44:43.721Z,100677.30
2018-08-28T03:47:15.372Z,100672.34
2018-08-28T03:49:46.836Z,100674.55
2018-08-28T03:52:18.397Z,100679.31
2018-08-28T03:54:49.968Z,100680.34
2018-08-28T03:57:20.579Z,100684.14
2018-08-28T03:59:52.211Z,100681.41
2018-08-28T04:02:23.680Z,100688.25
2018-08-28T04:04:55.202Z,100692.02
2018-08-28T04:07:26.706Z,100694.57
2018-08-28T04:09:58.302Z,100690.66
2018-08-28T04:12:29.763Z,100692.23
2018-08-28T04:15:01.361Z,100694.86
2018-08-28T04:17:36.584Z,100704.35
2018-08-28T04:20:07.966Z,100696.25
2018-08-28T04:22:38.630Z,100706.78
2018-08-28T04:25:10.624Z,100707.96
2018-08-28T04:27:42.863Z,100705.00
2018-08-28T04:30:14.523Z,100701.61
2018-08-28T04:32:46.203Z,100707.55
2018-08-28T04:35:18.511Z,100712.69
2018-08-28T04:37:49.943Z,100713.22
2018-08-28T04:40:20.535Z,100711.08
2018-08-28T04:42:52.188Z,100718.45
2018-08-28T04:47:01.502Z,100725.24
2018-08-28T04:49:32.626Z,100727.98
2018-08-28T04:52:03.732Z,100726.52
2018-08-28T04:56:59.811Z,100732.34
2018-08-28T04:59:30.787Z,100733.36
2018-08-28T05:02:01.609Z,100734.11
2018-08-28T05:04:32.422Z,100738.94
2018-08-28T05:07:03.643Z,100743.70
2018-08-28T05:09:34.672Z,100744.32
2018-08-28T05:12:05.821Z,100745.69
2018-08-28T05:14:36.806Z,100741.92
2018-08-28T05:17:08.193Z,100746.03
2018-08-28T05:19:39.449Z,100744.66
2018-08-28T05:22:10.679Z,100742.11
2018-08-28T05:24:41.671Z,100751.52
2018-08-28T05:27:12.687Z,100752.55
2018-08-28T05:29:44.385Z,100753.73
2018-08-28T05:32:15.722Z,100755.75
2018-08-28T05:34:47.300Z,100762.19
2018-08-28T05:37:18.763Z,100756.59
2018-08-28T05:39:50.200Z,100763.56
2018-08-28T05:42:21.743Z,100766.49
2018-08-28T05:44:53.284Z,100763.56
2018-08-28T05:47:24.825Z,100763.75
2018-08-28T05:49:56.348Z,100764.41
2018-08-28T05:52:27.862Z,100762.63
2018-08-28T05:54:59.366Z,100767.48
2018-08-28T05:57:30.748Z,100762.19
2018-08-28T06:00:01.739Z,100767.48
2018-08-28T06:02:33.332Z,100766.12
2018-08-28T06:05:04.723Z,100763.03
2018-08-28T06:07:36.305Z,100774.84
2018-08-28T06:10:07.761Z,100766.42
2018-08-28T06:12:39.364Z,100768.23
2018-08-28T06:15:10.752Z,100773.52
2018-08-28T06:17:42.387Z,100779.72
2018-08-28T06:20:13.836Z,100783.30
2018-08-28T06:22:45.310Z,100781.75
2018-08-28T06:25:16.718Z,100779.00
2018-08-28T06:27:48.191Z,100771.19
2018-08-28T06:30:19.660Z,100784.48
2018-08-28T06:32:51.190Z,100783.42
2018-08-28T06:35:22.688Z,100783.77
2018-08-28T06:37:54.199Z,100790.52
2018-08-28T06:40:25.647Z,100791.89
2018-08-28T06:42:56.909Z,100790.86
2018-08-28T06:45:28.369Z,100785.69
2018-08-28T06:47:59.736Z,100788.12
2018-08-28T06:50:31.023Z,100789.09
2018-08-28T06:53:02.665Z,100789.61
2018-08-28T06:55:33.975Z,100786.13
2018-08-28T06:58:05.511Z,100787.91
2018-08-28T07:00:36.839Z,100790.45
2018-08-28T07:03:08.297Z,100800.70
2018-08-28T07:05:39.680Z,100802.38
2018-08-28T07:08:11.215Z,100803.34
2018-08-28T07:10:42.697Z,100802.91
2018-08-28T07:13:14.188Z,100808.80
2018-08-28T07:15:45.692Z,100809.83
2018-08-28T07:18:17.195Z,100811.72
2018-08-28T07:20:48.695Z,100814.97
2018-08-28T07:23:20.267Z,100810.35
2018-08-28T07:25:51.819Z,100810.06
2018-08-28T07:28:23.268Z,100816.85
2018-08-28T07:30:54.744Z,100815.48
2018-08-28T07:33:25.736Z,100818.75
2018-08-28T07:35:56.714Z,100819.72
2018-08-28T07:38:28.294Z,100817.27
2018-08-28T07:40:59.743Z,100828.13
2018-08-28T07:43:30.766Z,100826.88
2018-08-28T07:46:02.305Z,100831.84
2018-08-28T07:48:33.733Z,100830.16
2018-08-28T07:51:05.332Z,100833.55
2018-08-28T07:53:36.695Z,100838.31
2018-08-28T07:56:08.194Z,100837.56
2018-08-28T07:58:39.683Z,100839.59
2018-08-28T08:01:11.192Z,100838.22
2018-08-28T08:03:42.681Z,100834.51
2018-08-28T08:06:14.185Z,100841.05
2018-08-28T08:08:45.683Z,100836.84
2018-08-28T08:11:17.189Z,100844.11
2018-08-28T08:13:48.687Z,100841.05
2018-08-28T08:16:20.198Z,100846.44
2018-08-28T08:18:51.704Z,100841.92
2018-08-28T08:21:23.334Z,100843.75
2018-08-28T08:23:54.751Z,100840.19
2018-08-28T08:26:26.333Z,100845.24
2018-08-28T08:28:57.748Z,100847.16
2018-08-28T08:31:29.302Z,100848.13
2018-08-28T08:34:00.799Z,100850.14
2018-08-28T08:36:32.384Z,100854.67
2018-08-28T08:39:03.817Z,100857.72
2018-08-28T08:41:35.576Z,100852.98
2018-08-28T08:44:07.319Z,100858.13
2018-08-28T08:46:38.947Z,100855.39
2018-08-28T08:49:09.571Z,100852.05
2018-08-28T08:51:41.195Z,100848.77
2018-08-28T08:54:12.699Z,100852.36
2018-08-28T08:56:44.301Z,100848.34
2018-08-28T08:59:15.819Z,100853.71
2018-08-28T09:01:47.411Z,100854.67
2018-08-28T09:04:18.863Z,100840.23
2018-08-28T09:06:50.389Z,100844.23
2018-08-28T09:09:21.895Z,100848.95
2018-08-28T09:11:53.378Z,100852.65
2018-08-28T09:14:24.896Z,100847.45
2018-08-28T09:16:56.627Z,100853.18
2018-08-28T09:19:28.145Z,100847.22
2018-08-28T09:21:59.743Z,100842.81
2018-08-28T09:24:31.317Z,100843.27
2018-08-28T09:27:02.788Z,100845.37
2018-08-28T09:29:34.408Z,100839.64
2018-08-28T09:32:06.956Z,100840.29
2018-08-28T09:34:37.844Z,100847.80
2018-08-28T09:37:09.640Z,100847.45
2018-08-28T09:39:41.190Z,100840.29
2018-08-28T09:42:12.760Z,100843.45
2018-08-28T09:44:44.409Z,100839.88
2018-08-28T09:47:15.633Z,100847.69
2018-08-28T09:49:46.991Z,100853.97
2018-08-28T09:52:18.190Z,100848.29
2018-08-28T09:54:49.737Z,100844.47
2018-08-28T09:57:21.422Z,100841.42
2018-08-28T10:02:33.701Z,100847.03
2018-08-28T10:05:04.739Z,100849.89
2018-08-28T10:07:35.800Z,100854.32
2018-08-28T10:10:06.642Z,100849.55
2018-08-28T10:12:37.699Z,100842.98
2018-08-28T10:15:09.384Z,100848.00
2018-08-28T10:17:40.595Z,100844.89
2018-08-28T10:20:11.690Z,100842.58
2018-08-28T10:22:42.780Z,100836.02
2018-08-28T10:25:13.820Z,100844.25
2018-08-28T10:27:44.895Z,100840.05
2018-08-28T10:30:16.374Z,100843.59
2018-08-28T10:32:47.863Z,100845.27
2018-08-28T10:35:19.400Z,100844.77
2018-08-28T10:37:50.843Z,100847.27
2018-08-28T10:40:22.650Z,100842.02
2018-08-28T10:42:54.224Z,100849.19
2018-08-28T10:45:25.727Z,100845.72
2018-08-28T10:47:57.424Z,100849.91
2018-08-28T10:50:28.747Z,100856.70
2018-08-28T10:53:00.419Z,100851.94
2018-08-28T10:55:31.892Z,100848.23
2018-08-28T10:59:07.414Z,100849.08
2018-08-28T11:01:38.839Z,100849.72
2018-08-28T11:04:10.309Z,100847.70
2018-08-28T11:06:41.780Z,100849.73
2018-08-28T11:09:13.301Z,100854.37
2018-08-28T11:11:44.838Z,100860.47
2018-08-28T11:14:16.218Z,100856.98
2018-08-28T11:16:47.711Z,100851.69
2018-08-28T11:19:19.204Z,100851.38
2018-08-28T11:21:50.758Z,100848.48
2018-08-28T11:24:21.752Z,100842.64
2018-08-28T11:26:52.783Z,100845.91
2018-08-28T11:29:24.327Z,100843.83
2018-08-28T11:31:55.766Z,100845.27
2018-08-28T11:34:27.317Z,100846.34
2018-08-28T11:36:59.008Z,100849.55
2018-08-28T11:39:30.624Z,100850.55
2018-08-28T11:42:02.049Z,100849.72
2018-08-28T11:44:33.737Z,100848.42
2018-08-28T11:47:05.458Z,100851.69
2018-08-28T11:49:36.854Z,100846.97
2018-08-28T11:52:08.241Z,100844.83
2018-08-28T11:54:39.831Z,100846.92
2018-08-28T11:57:11.332Z,100841.95
2018-08-28T11:59:42.808Z,100849.61
2018-08-28T12:02:13.792Z,100841.78
2018-08-28T12:04:44.839Z,100842.50
2018-08-28T12:07:16.390Z,100834.69
2018-08-28T12:09:47.705Z,100845.72
2018-08-28T12:12:19.193Z,100850.67
2018-08-28T12:14:50.903Z,100843.83
2018-08-28T12:17:22.628Z,100842.15
2018-08-28T12:19:53.885Z,100846.98
2018-08-28T12:22:25.429Z,100845.73
2018-08-28T12:24:56.723Z,100839.88
2018-08-28T12:27:28.319Z,100845.89
2018-08-28T12:29:59.716Z,100841.73
2018-08-28T12:32:31.327Z,100833.69
2018-08-28T12:35:02.713Z,100833.79
2018-08-28T12:37:34.213Z,100835.66
2018-08-28T12:40:04.775Z,100829.03
2018-08-28T12:42:36.406Z,100833.84
2018-08-28T12:45:08.578Z,100827.83
2018-08-28T12:47:40.621Z,100830.99
2018-08-28T12:50:12.592Z,100826.87
2018-08-28T12:52:43.864Z,100826.45
2018-08-28T12:55:15.322Z,100818.88
2018-08-28T12:57:46.817Z,100814.83
2018-08-28T13:00:18.335Z,100819.48
2018-08-28T13:02:49.809Z,100822.88
2018-08-28T13:05:21.329Z,100819.06
2018-08-28T13:07:52.810Z,100814.88
2018-08-28T13:10:24.389Z,100818.16
2018-08-28T13:12:55.881Z,100812.36
2018-08-28T13:15:27.405Z,100813.16
2018-08-28T13:17:58.814Z,100812.74
2018-08-28T13:20:30.338Z,100813.08
2018-08-28T13:23:01.898Z,100819.11
2018-08-28T13:25:33.683Z,100817.32
2018-08-28T13:28:05.233Z,100810.45
2018-08-28T13:30:36.745Z,100811.83
2018-08-28T13:33:08.324Z,100805.80
2018-08-28T13:35:39.977Z,100805.19
2018-08-28T13:38:10.662Z,100797.58
2018-08-28T13:40:42.861Z,100801.69
2018-08-28T13:43:14.193Z,100794.59
2018-08-28T13:45:45.860Z,100790.91
2018-08-28T13:48:17.453Z,100791.66
2018-08-28T13:50:49.334Z,100789.03
2018-08-28T13:53:20.861Z,100784.16
2018-08-28T13:55:52.782Z,100784.34
2018-08-28T13:58:24.032Z,100785.70
2018-08-28T14:00:56.077Z,100786.74
2018-08-28T14:03:27.732Z,100783.66
2018-08-28T14:05:58.783Z,100785.87
2018-08-28T14:08:30.036Z,100785.11
2018-08-28T14:11:01.843Z,100782.06
2018-08-28T14:13:33.240Z,100781.34
2018-08-28T14:16:04.787Z,100785.70
2018-08-28T14:18:36.390Z,100780.08
2018-08-28T14:21:07.879Z,100780.69
2018-08-28T14:23:39.536Z,100780.49
2018-08-28T14:26:11.206Z,100783.13
2018-08-28T14:28:42.748Z,100788.50
2018-08-28T14:31:14.303Z,100780.27
2018-08-28T14:33:45.790Z,100782.97
2018-08-28T14:36:17.364Z,100785.17
2018-08-28T14:38:49.384Z,100779.16
2018-08-28T14:41:21.000Z,100777.47
2018-08-28T14:43:52.661Z,100774.12
2018-08-28T14:46:24.238Z,100774.78
2018-08-28T14:49:10.226Z,100776.69
2018-08-28T14:51:42.212Z,100776.80
2018-08-28T14:54:14.570Z,100778.25
2018-08-28T14:56:46.347Z,100779.09
2018-08-28T14:59:17.907Z,100777.06
2018-08-28T15:01:48.634Z,100770.73
2018-08-28T15:04:21.232Z,100770.44
2018-08-28T15:06:52.876Z,100770.20
2018-08-28T15:09:24.447Z,100767.05
2018-08-28T15:11:56.219Z,100767.23
2018-08-28T15:14:27.760Z,100773.18
2018-08-28T15:16:59.351Z,100774.44
2018-08-28T15:19:30.824Z,100770.55
2018-08-28T15:22:02.466Z,100764.49
2018-08-28T15:24:33.802Z,100762.16
2018-08-28T15:27:05.338Z,100773.79
2018-08-28T15:29:36.793Z,100772.00
2018-08-28T15:32:08.640Z,100767.23
2018-08-28T15:34:40.387Z,100770.02
2018-08-28T15:37:11.847Z,100766.20
2018-08-28T15:39:43.553Z,100764.07
2018-08-28T15:42:15.009Z,100763.53
2018-08-28T15:44:46.872Z,100760.91
2018-08-28T15:47:18.462Z,100755.23
2018-08-28T15:49:52.476Z,100761.13
2018-08-28T15:52:24.222Z,100760.07
2018-08-28T15:54:55.705Z,100758.89
2018-08-28T15:57:27.320Z,100757.09
2018-08-28T15:59:58.878Z,100762.89
2018-08-28T16:02:30.428Z,100766.05
2018-08-28T16:05:01.770Z,100765.75
2018-08-28T16:07:33.315Z,100764.03
2018-08-28T16:10:04.891Z,100765.75
2018-08-28T16:12:36.553Z,100764.68
2018-08-28T16:15:08.523Z,100765.44
2018-08-28T16:17:40.204Z,100763.45
2018-08-28T16:20:11.761Z,100765.64
2018-08-28T16:22:50.848Z,100762.27
2018-08-28T16:25:22.633Z,100755.64
2018-08-28T16:27:54.263Z,100757.41
2018-08-28T16:30:25.818Z,100763.88
2018-08-28T16:32:57.576Z,100753.70
2018-08-28T16:35:30.335Z,100756.14
2018-08-28T16:40:57.687Z,100745.28
2018-08-28T16:43:28.908Z,100748.67
2018-08-28T16:46:05.749Z,100744.33
2018-08-28T16:48:36.889Z,100743.68
2018-08-28T16:51:07.892Z,100737.85
2018-08-28T16:53:38.830Z,100741.66
2018-08-28T16:56:09.863Z,100744.70
2018-08-28T16:58:41.765Z,100748.10
2018-08-28T17:01:12.867Z,100737.77
2018-08-28T17:03:45.583Z,100747.03
2018-08-28T17:06:16.694Z,100746.31
2018-08-28T17:08:47.674Z,100741.25
2018-08-28T17:11:19.628Z,100737.36
2018-08-28T17:13:50.731Z,100733.02
2018-08-28T17:16:22.073Z,100737.77
2018-08-28T17:18:53.434Z,100736.30
2018-08-28T17:21:24.720Z,100736.41
2018-08-28T17:23:55.855Z,100730.58
2018-08-28T17:26:26.860Z,100733.02
2018-08-28T17:28:57.822Z,100735.76
2018-08-28T17:31:28.824Z,100736.48
2018-08-28T17:33:59.863Z,100738.73
2018-08-28T17:36:32.219Z,100739.56
2018-08-28T17:39:03.461Z,100741.47
2018-08-28T17:41:35.220Z,100741.66
2018-08-28T17:44:06.635Z,100744.41
2018-08-28T17:49:20.478Z,100742.61
2018-08-28T17:51:51.679Z,100743.64
2018-08-28T17:54:22.663Z,100743.03
2018-08-28T17:56:53.747Z,100741.89
2018-08-28T17:59:25.365Z,100739.03
2018-08-28T18:02:07.479Z,100737.66
2018-08-28T18:04:38.663Z,100744.70
2018-08-28T18:07:09.731Z,100743.34
2018-08-28T18:09:40.862Z,100737.70
2018-08-28T18:12:22.599Z,100741.01
2018-08-28T18:14:54.321Z,100738.69
2018-08-28T18:17:25.595Z,100742.38
2018-08-28T18:19:57.640Z,100745.13
2018-08-28T18:22:28.661Z,100742.04
2018-08-28T18:24:59.830Z,100743.41
2018-08-28T18:27:30.578Z,100749.84
2018-08-28T18:30:01.714Z,100743.30
2018-08-28T18:32:32.838Z,100755.22
2018-08-28T18:35:03.893Z,100756.89
2018-08-28T18:37:34.882Z,100760.70
2018-08-28T18:40:05.853Z,100759.45
2018-08-28T18:42:36.872Z,100763.56
2018-08-28T18:45:08.561Z,100758.27
2018-08-28T18:47:39.758Z,100761.34
2018-08-28T18:50:11.288Z,100759.98
2018-08-28T18:52:42.793Z,100768.09
2018-08-28T18:55:14.197Z,100756.35
2018-08-28T18:57:45.828Z,100761.42
2018-08-28T19:00:17.205Z,100755.51
2018-08-28T19:02:48.752Z,100753.61
2018-08-28T19:05:20.032Z,100754.02
2018-08-28T19:07:51.481Z,100757.80
2018-08-28T19:15:50.721Z,100748.49
2018-08-28T19:18:21.901Z,100758.09
2018-08-28T19:20:52.979Z,100756.94
2018-08-28T19:23:37.625Z,100761.17
2018-08-28T19:26:08.832Z,100761.59
2018-08-28T19:28:40.061Z,100757.78
2018-08-28T19:31:11.995Z,100757.35
2018-08-28T19:33:43.204Z,100763.87
2018-08-28T19:36:14.424Z,100764.33
2018-08-28T19:38:45.657Z,100763.34
2018-08-28T19:41:16.699Z,100758.95
2018-08-28T19:43:47.662Z,100758.95
2018-08-28T19:46:18.704Z,100758.64
2018-08-28T19:48:49.774Z,100752.84
2018-08-28T19:51:20.843Z,100743.33
2018-08-28T19:53:52.427Z,100745.87
2018-08-28T19:56:23.766Z,100749.23
2018-08-28T19:58:55.227Z,100749.53
2018-08-28T20:01:26.721Z,100745.23
2018-08-28T20:03:58.419Z,100743.44
2018-08-28T20:06:29.968Z,100748.03
2018-08-28T20:09:01.661Z,100747.51
2018-08-28T20:11:33.208Z,100747.20
2018-08-28T20:14:04.605Z,100753.20
2018-08-28T20:16:36.316Z,100756.48
2018-08-28T20:19:07.807Z,100759.10
2018-08-28T20:21:39.316Z,100750.53
2018-08-28T20:24:10.787Z,100750.76
2018-08-28T20:26:42.375Z,100752.53
2018-08-28T20:29:13.786Z,100746.18
2018-08-28T20:31:45.215Z,100737.94
2018-08-28T20:34:16.754Z,100738.71
2018-08-28T20:36:47.746Z,100743.02
2018-08-28T20:39:19.329Z,100744.69
2018-08-28T20:41:51.264Z,100751.11
2018-08-28T20:44:22.777Z,100745.63
2018-08-28T20:46:54.379Z,100743.31
2018-08-28T20:49:25.874Z,100741.52
2018-08-28T20:51:57.554Z,100743.08
2018-08-28T20:54:29.209Z,100738.13
2018-08-28T20:57:01.190Z,100734.61
2018-08-28T20:59:32.697Z,100738.47
2018-08-28T21:02:04.377Z,100736.75
2018-08-28T21:04:35.884Z,100730.74
2018-08-28T21:07:07.785Z,100734.98
2018-08-28T21:09:39.410Z,100733.61
2018-08-28T21:12:11.216Z,100732.64
2018-08-28T21:14:42.757Z,100732.23
2018-08-28T21:17:14.047Z,100734.36
2018-08-28T21:19:45.252Z,100735.73
2018-08-28T21:24:59.645Z,100732.93
2018-08-28T21:27:31.211Z,100733.23
2018-08-28T21:30:02.779Z,100733.77
2018-08-28T21:32:34.496Z,100736.98
2018-08-28T21:35:05.601Z,100730.74
2018-08-28T21:37:37.510Z,100731.38
2018-08-28T21:40:09.314Z,100727.27
2018-08-28T21:42:40.790Z,100732.21
2018-08-28T21:45:13.973Z,100732.74
2018-08-28T21:47:45.661Z,100733.12
2018-08-28T21:50:17.315Z,100738.28
2018-08-28T21:52:49.395Z,100735.73
2018-08-28T21:58:01.558Z,100730.38
2018-08-28T22:00:33.794Z,100732.41
2018-08-28T22:03:05.427Z,100727.27
2018-08-28T22:05:39.208Z,100729.66
2018-08-28T22:08:10.745Z,100730.26
2018-08-28T22:10:42.035Z,100727.20
2018-08-28T22:13:13.634Z,100725.65
2018-08-28T22:15:45.361Z,100725.00
2018-08-28T22:18:16.859Z,100721.83
2018-08-28T22:20:53.595Z,100721.48
2018-08-28T22:23:25.658Z,100723.38
2018-08-28T22:25:57.316Z,100719.98
2018-08-28T22:28:28.842Z,100722.66
2018-08-28T22:31:00.715Z,100726.02
2018-08-28T22:33:32.195Z,100711.77
2018-08-28T22:36:03.756Z,100717.19
2018-08-28T22:38:35.353Z,100720.64
2018-08-28T22:41:06.781Z,100716.94
2018-08-28T22:43:38.034Z,100720.83
2018-08-28T22:46:09.405Z,100717.78
2018-08-28T22:48:40.819Z,100711.23
2018-08-28T22:51:12.503Z,100717.59
2018-08-28T22:53:43.884Z,100716.22
2018-08-28T22:56:16.004Z,100714.33
2018-08-28T23:01:27.894Z,100708.78
2018-08-28T23:03:58.871Z,100705.33
2018-08-28T23:06:30.686Z,100706.41
2018-08-28T23:09:01.740Z,100701.47
2018-08-28T23:11:32.865Z,100700.28
2018-08-28T23:14:04.873Z,100696.05
2018-08-28T23:16:35.900Z,100694.06
2018-08-28T23:19:06.816Z,100699.66
2018-08-28T23:21:37.810Z,100684.73
2018-08-28T23:24:08.856Z,100699.54
2018-08-28T23:26:39.802Z,100701.03
2018-08-28T23:29:10.783Z,100700.91
2018-08-28T23:31:42.204Z,100688.58
2018-08-28T23:34:13.453Z,100691.08
2018-08-28T23:36:44.628Z,100690.20
2018-08-28T23:39:15.687Z,100690.95
2018-08-28T23:41:46.735Z,100684.73
2018-08-28T23:44:18.561Z,100681.67
2018-08-28T23:46:49.712Z,100676.02
2018-08-28T23:49:20.687Z,100677.75
2018-08-28T23:51:51.872Z,100676.20
2018-08-28T23:54:23.364Z,100671.97
2018-08-28T23:56:54.620Z,100667.86
2018-08-28T23:59:25.662Z,100667.73
